sensor_id;sensor_type;location;lat;lon;timestamp;temperature;humidity
13673;DHT22;6909;52.202;9.876;2023-10-09T00:01:02;12.40;1.00
13673;DHT22;6909;52.202;9.876;2023-10-09T00:03:30;12.30;1.00
13673;DHT22;6909;52.202;9.876;2023-10-09T00:05:57;12.30;1.00
13673;DHT22;6909;52.202;9.876;2023-10-09T00:08:26;12.30;1.00
13673;DHT22;6909;52.202;9.876;2023-10-09T00:10:57;12.30;1.00
13673;DHT22;6909;52.202;9.876;2023-10-09T00:13:25;12.30;99.90
13673;DHT22;6909;52.202;9.876;2023-10-09T00:15:57;12.30;99.90
13673;DHT22;6909;52.202;9.876;2023-10-09T00:18:27;12.30;99.90
13673;DHT22;6909;52.202;9.876;2023-10-09T00:20:59;12.30;86.90
13673;DHT22;6909;52.202;9.876;2023-10-09T00:23:38;12.30;1.00
13673;DHT22;6909;52.202;9.876;2023-10-09T00:26:05;12.30;1.00
13673;DHT22;6909;52.202;9.876;2023-10-09T00:28:35;12.20;1.00
13673;DHT22;6909;52.202;9.876;2023-10-09T00:31:03;12.20;1.00
13673;DHT22;6909;52.202;9.876;2023-10-09T00:33:33;12.20;1.00
13673;DHT22;6909;52.202;9.876;2023-10-09T00:36:02;12.30;1.00
13673;DHT22;6909;52.202;9.876;2023-10-09T00:38:35;12.30;1.00
13673;DHT22;6909;52.202;9.876;2023-10-09T00:41:05;12.30;1.00
13673;DHT22;6909;52.202;9.876;2023-10-09T00:43:45;12.30;1.00
13673;DHT22;6909;52.202;9.876;2023-10-09T00:46:12;12.30;1.00
13673;DHT22;6909;52.202;9.876;2023-10-09T00:48:52;12.30;99.90
13673;DHT22;6909;52.202;9.876;2023-10-09T00:51:21;12.30;1.00
13673;DHT22;6909;52.202;9.876;2023-10-09T00:53:55;12.40;99.90
13673;DHT22;6909;52.202;9.876;2023-10-09T00:56:25;12.30;1.00
13673;DHT22;6909;52.202;9.876;2023-10-09T00:59:04;12.30;1.00
13673;DHT22;6909;52.202;9.876;2023-10-09T01:01:34;12.30;1.00
13673;DHT22;6909;52.202;9.876;2023-10-09T01:04:05;12.40;1.00
13673;DHT22;6909;52.202;9.876;2023-10-09T01:06:33;12.40;50.10
13673;DHT22;6909;52.202;9.876;2023-10-09T01:09:08;12.40;99.90
13673;DHT22;6909;52.202;9.876;2023-10-09T01:11:37;12.50;1.00
13673;DHT22;6909;52.202;9.876;2023-10-09T01:14:13;12.50;1.00
13673;DHT22;6909;52.202;9.876;2023-10-09T01:16:40;12.50;1.00
13673;DHT22;6909;52.202;9.876;2023-10-09T01:19:12;12.50;1.00
13673;DHT22;6909;52.202;9.876;2023-10-09T01:21:49;12.60;1.00
13673;DHT22;6909;52.202;9.876;2023-10-09T01:24:17;12.60;1.00
13673;DHT22;6909;52.202;9.876;2023-10-09T01:26:47;12.60;1.00
13673;DHT22;6909;52.202;9.876;2023-10-09T01:29:16;12.60;1.00
13673;DHT22;6909;52.202;9.876;2023-10-09T01:31:45;12.60;1.00
13673;DHT22;6909;52.202;9.876;2023-10-09T01:34:18;12.60;99.90
13673;DHT22;6909;52.202;9.876;2023-10-09T01:36:50;12.60;99.90
13673;DHT22;6909;52.202;9.876;2023-10-09T01:39:22;12.60;99.90
13673;DHT22;6909;52.202;9.876;2023-10-09T01:41:52;12.60;1.00
13673;DHT22;6909;52.202;9.876;2023-10-09T01:44:25;12.60;1.00
13673;DHT22;6909;52.202;9.876;2023-10-09T01:46:53;12.60;1.00
13673;DHT22;6909;52.202;9.876;2023-10-09T01:49:22;12.60;1.00
13673;DHT22;6909;52.202;9.876;2023-10-09T01:51:55;12.60;99.90
13673;DHT22;6909;52.202;9.876;2023-10-09T01:54:25;12.70;1.00
13673;DHT22;6909;52.202;9.876;2023-10-09T01:57:02;12.70;1.00
13673;DHT22;6909;52.202;9.876;2023-10-09T01:59:31;12.80;1.00
13673;DHT22;6909;52.202;9.876;2023-10-09T02:01:58;12.90;1.00
13673;DHT22;6909;52.202;9.876;2023-10-09T02:04:31;12.90;10.70
13673;DHT22;6909;52.202;9.876;2023-10-09T02:06:59;12.90;44.40
13673;DHT22;6909;52.202;9.876;2023-10-09T02:09:33;12.90;67.30
13673;DHT22;6909;52.202;9.876;2023-10-09T02:12:01;12.90;99.90
13673;DHT22;6909;52.202;9.876;2023-10-09T02:14:28;12.80;99.90
13673;DHT22;6909;52.202;9.876;2023-10-09T02:16:54;12.80;99.90
13673;DHT22;6909;52.202;9.876;2023-10-09T02:19:34;12.80;99.90
13673;DHT22;6909;52.202;9.876;2023-10-09T02:22:01;12.80;99.90
13673;DHT22;6909;52.202;9.876;2023-10-09T02:24:39;12.70;99.90
13673;DHT22;6909;52.202;9.876;2023-10-09T02:27:16;12.70;99.90
13673;DHT22;6909;52.202;9.876;2023-10-09T02:30:06;12.60;99.90
13673;DHT22;6909;52.202;9.876;2023-10-09T02:32:41;12.60;99.90
13673;DHT22;6909;52.202;9.876;2023-10-09T02:35:09;12.50;99.90
13673;DHT22;6909;52.202;9.876;2023-10-09T02:37:46;12.50;99.90
13673;DHT22;6909;52.202;9.876;2023-10-09T02:40:14;12.50;99.90
13673;DHT22;6909;52.202;9.876;2023-10-09T02:42:53;12.40;99.90
13673;DHT22;6909;52.202;9.876;2023-10-09T02:45:20;12.40;99.90
13673;DHT22;6909;52.202;9.876;2023-10-09T02:47:54;12.40;99.90
13673;DHT22;6909;52.202;9.876;2023-10-09T02:50:21;12.40;99.90
13673;DHT22;6909;52.202;9.876;2023-10-09T02:52:48;12.40;99.90
13673;DHT22;6909;52.202;9.876;2023-10-09T02:55:23;12.40;99.90
13673;DHT22;6909;52.202;9.876;2023-10-09T02:57:52;12.40;99.90
13673;DHT22;6909;52.202;9.876;2023-10-09T03:00:30;12.40;99.90
13673;DHT22;6909;52.202;9.876;2023-10-09T03:02:58;12.50;99.90
13673;DHT22;6909;52.202;9.876;2023-10-09T03:05:25;12.50;99.90
13673;DHT22;6909;52.202;9.876;2023-10-09T03:07:53;12.60;99.90
13673;DHT22;6909;52.202;9.876;2023-10-09T03:12:48;12.70;99.90
13673;DHT22;6909;52.202;9.876;2023-10-09T03:15:18;12.80;99.90
13673;DHT22;6909;52.202;9.876;2023-10-09T03:17:45;12.80;99.90
13673;DHT22;6909;52.202;9.876;2023-10-09T03:20:13;12.90;99.90
13673;DHT22;6909;52.202;9.876;2023-10-09T03:22:41;12.90;99.90
13673;DHT22;6909;52.202;9.876;2023-10-09T03:25:08;12.90;99.90
13673;DHT22;6909;52.202;9.876;2023-10-09T03:27:38;12.90;99.90
13673;DHT22;6909;52.202;9.876;2023-10-09T03:30:10;12.90;99.90
13673;DHT22;6909;52.202;9.876;2023-10-09T03:32:43;12.90;99.90
13673;DHT22;6909;52.202;9.876;2023-10-09T03:35:14;12.90;99.90
13673;DHT22;6909;52.202;9.876;2023-10-09T03:37:43;13.10;99.90
13673;DHT22;6909;52.202;9.876;2023-10-09T03:40:11;13.10;99.90
13673;DHT22;6909;52.202;9.876;2023-10-09T03:42:43;13.20;99.90
13673;DHT22;6909;52.202;9.876;2023-10-09T03:45:11;13.20;99.90
13673;DHT22;6909;52.202;9.876;2023-10-09T03:47:51;13.30;99.90
13673;DHT22;6909;52.202;9.876;2023-10-09T03:50:22;13.30;99.90
13673;DHT22;6909;52.202;9.876;2023-10-09T03:52:52;13.30;99.90
13673;DHT22;6909;52.202;9.876;2023-10-09T03:55:20;13.40;99.90
13673;DHT22;6909;52.202;9.876;2023-10-09T03:57:47;13.50;99.90
13673;DHT22;6909;52.202;9.876;2023-10-09T04:00:16;13.50;99.90
13673;DHT22;6909;52.202;9.876;2023-10-09T04:02:53;13.60;99.90
13673;DHT22;6909;52.202;9.876;2023-10-09T04:05:20;13.60;99.90
13673;DHT22;6909;52.202;9.876;2023-10-09T04:07:47;13.60;99.90
13673;DHT22;6909;52.202;9.876;2023-10-09T04:10:14;13.70;99.90
13673;DHT22;6909;52.202;9.876;2023-10-09T04:12:59;13.70;99.90
13673;DHT22;6909;52.202;9.876;2023-10-09T04:15:27;13.70;99.90
13673;DHT22;6909;52.202;9.876;2023-10-09T04:17:56;13.80;99.90
13673;DHT22;6909;52.202;9.876;2023-10-09T04:20:23;13.80;99.90
13673;DHT22;6909;52.202;9.876;2023-10-09T04:23:07;13.80;99.90
13673;DHT22;6909;52.202;9.876;2023-10-09T04:25:34;13.80;99.90
13673;DHT22;6909;52.202;9.876;2023-10-09T04:28:16;13.80;99.90
13673;DHT22;6909;52.202;9.876;2023-10-09T04:30:46;13.80;99.90
13673;DHT22;6909;52.202;9.876;2023-10-09T04:33:19;13.80;99.90
13673;DHT22;6909;52.202;9.876;2023-10-09T04:36:01;13.80;99.90
13673;DHT22;6909;52.202;9.876;2023-10-09T04:38:48;13.90;99.90
13673;DHT22;6909;52.202;9.876;2023-10-09T04:41:29;13.90;99.90
13673;DHT22;6909;52.202;9.876;2023-10-09T04:43:58;14.00;99.90
13673;DHT22;6909;52.202;9.876;2023-10-09T04:46:45;14.00;99.90
13673;DHT22;6909;52.202;9.876;2023-10-09T04:49:32;14.00;99.90
13673;DHT22;6909;52.202;9.876;2023-10-09T04:52:15;13.90;99.90
13673;DHT22;6909;52.202;9.876;2023-10-09T04:54:45;14.00;99.90
13673;DHT22;6909;52.202;9.876;2023-10-09T04:57:26;14.00;99.90
13673;DHT22;6909;52.202;9.876;2023-10-09T04:59:53;14.00;99.90
13673;DHT22;6909;52.202;9.876;2023-10-09T05:02:25;14.00;99.90
13673;DHT22;6909;52.202;9.876;2023-10-09T05:05:01;14.00;99.90
13673;DHT22;6909;52.202;9.876;2023-10-09T05:07:42;14.00;99.90
13673;DHT22;6909;52.202;9.876;2023-10-09T05:10:20;14.10;99.90
13673;DHT22;6909;52.202;9.876;2023-10-09T05:12:50;14.10;99.90
13673;DHT22;6909;52.202;9.876;2023-10-09T05:15:22;14.20;99.90
13673;DHT22;6909;52.202;9.876;2023-10-09T05:17:53;14.10;99.90
13673;DHT22;6909;52.202;9.876;2023-10-09T05:20:22;14.20;99.90
13673;DHT22;6909;52.202;9.876;2023-10-09T05:23:11;14.20;99.90
13673;DHT22;6909;52.202;9.876;2023-10-09T05:25:51;14.20;99.90
13673;DHT22;6909;52.202;9.876;2023-10-09T05:28:21;14.10;99.90
13673;DHT22;6909;52.202;9.876;2023-10-09T05:31:14;14.20;99.90
13673;DHT22;6909;52.202;9.876;2023-10-09T05:34:02;14.20;99.90
13673;DHT22;6909;52.202;9.876;2023-10-09T05:36:32;14.20;99.90
13673;DHT22;6909;52.202;9.876;2023-10-09T05:39:01;14.30;99.90
13673;DHT22;6909;52.202;9.876;2023-10-09T05:41:42;14.30;99.90
13673;DHT22;6909;52.202;9.876;2023-10-09T05:44:13;14.30;99.90
13673;DHT22;6909;52.202;9.876;2023-10-09T05:47:03;14.30;99.90
13673;DHT22;6909;52.202;9.876;2023-10-09T05:49:48;14.30;99.90
13673;DHT22;6909;52.202;9.876;2023-10-09T05:52:32;14.30;99.90
13673;DHT22;6909;52.202;9.876;2023-10-09T05:55:19;14.30;99.90
13673;DHT22;6909;52.202;9.876;2023-10-09T05:58:02;14.30;99.90
13673;DHT22;6909;52.202;9.876;2023-10-09T06:00:46;14.30;99.90
13673;DHT22;6909;52.202;9.876;2023-10-09T06:03:30;14.30;99.90
13673;DHT22;6909;52.202;9.876;2023-10-09T06:06:24;14.30;99.90
13673;DHT22;6909;52.202;9.876;2023-10-09T06:09:01;14.30;99.90
13673;DHT22;6909;52.202;9.876;2023-10-09T06:11:54;14.30;99.90
13673;DHT22;6909;52.202;9.876;2023-10-09T06:14:42;14.40;99.90
13673;DHT22;6909;52.202;9.876;2023-10-09T06:17:32;14.40;99.90
13673;DHT22;6909;52.202;9.876;2023-10-09T06:20:10;14.30;99.90
13673;DHT22;6909;52.202;9.876;2023-10-09T06:22:52;14.30;99.90
13673;DHT22;6909;52.202;9.876;2023-10-09T06:25:42;14.30;99.90
13673;DHT22;6909;52.202;9.876;2023-10-09T06:28:17;14.20;99.90
13673;DHT22;6909;52.202;9.876;2023-10-09T06:30:44;14.20;99.90
13673;DHT22;6909;52.202;9.876;2023-10-09T06:33:12;14.20;99.90
13673;DHT22;6909;52.202;9.876;2023-10-09T06:35:55;14.20;99.90
13673;DHT22;6909;52.202;9.876;2023-10-09T06:38:23;14.30;99.90
13673;DHT22;6909;52.202;9.876;2023-10-09T06:40:50;14.30;99.90
13673;DHT22;6909;52.202;9.876;2023-10-09T06:43:35;14.30;99.90
13673;DHT22;6909;52.202;9.876;2023-10-09T06:46:15;14.30;99.90
13673;DHT22;6909;52.202;9.876;2023-10-09T06:49:00;14.30;99.90
13673;DHT22;6909;52.202;9.876;2023-10-09T06:51:47;14.30;99.90
13673;DHT22;6909;52.202;9.876;2023-10-09T06:54:14;14.40;99.90
13673;DHT22;6909;52.202;9.876;2023-10-09T06:56:45;14.40;99.90
13673;DHT22;6909;52.202;9.876;2023-10-09T06:59:29;14.20;99.90
13673;DHT22;6909;52.202;9.876;2023-10-09T07:02:09;14.20;99.90
13673;DHT22;6909;52.202;9.876;2023-10-09T07:04:51;14.10;99.90
13673;DHT22;6909;52.202;9.876;2023-10-09T07:07:21;14.20;99.90
13673;DHT22;6909;52.202;9.876;2023-10-09T07:09:52;14.20;99.90
13673;DHT22;6909;52.202;9.876;2023-10-09T07:12:36;14.20;99.90
13673;DHT22;6909;52.202;9.876;2023-10-09T07:15:10;14.20;99.90
13673;DHT22;6909;52.202;9.876;2023-10-09T07:17:54;14.30;99.90
13673;DHT22;6909;52.202;9.876;2023-10-09T07:20:21;14.30;99.90
13673;DHT22;6909;52.202;9.876;2023-10-09T07:23:07;14.40;99.90
13673;DHT22;6909;52.202;9.876;2023-10-09T07:25:42;14.40;99.90
13673;DHT22;6909;52.202;9.876;2023-10-09T07:28:21;14.40;99.90
13673;DHT22;6909;52.202;9.876;2023-10-09T07:31:08;14.40;99.90
13673;DHT22;6909;52.202;9.876;2023-10-09T07:33:50;14.40;99.90
13673;DHT22;6909;52.202;9.876;2023-10-09T07:36:32;14.40;99.90
13673;DHT22;6909;52.202;9.876;2023-10-09T07:39:03;14.40;99.90
13673;DHT22;6909;52.202;9.876;2023-10-09T07:41:40;14.40;99.90
13673;DHT22;6909;52.202;9.876;2023-10-09T07:44:21;14.40;99.90
13673;DHT22;6909;52.202;9.876;2023-10-09T07:47:02;14.40;99.90
13673;DHT22;6909;52.202;9.876;2023-10-09T07:49:45;14.40;99.90
13673;DHT22;6909;52.202;9.876;2023-10-09T07:52:18;14.30;99.90
13673;DHT22;6909;52.202;9.876;2023-10-09T07:54:47;14.30;99.90
13673;DHT22;6909;52.202;9.876;2023-10-09T07:57:20;14.30;99.90
13673;DHT22;6909;52.202;9.876;2023-10-09T07:59:51;14.20;99.90
13673;DHT22;6909;52.202;9.876;2023-10-09T08:02:29;14.30;99.90
13673;DHT22;6909;52.202;9.876;2023-10-09T08:05:00;14.30;99.90
13673;DHT22;6909;52.202;9.876;2023-10-09T08:07:40;14.30;99.90
13673;DHT22;6909;52.202;9.876;2023-10-09T08:10:20;14.30;99.90
13673;DHT22;6909;52.202;9.876;2023-10-09T08:13:05;14.40;99.90
13673;DHT22;6909;52.202;9.876;2023-10-09T08:15:59;14.40;99.90
13673;DHT22;6909;52.202;9.876;2023-10-09T08:18:29;14.50;99.90
13673;DHT22;6909;52.202;9.876;2023-10-09T08:20:55;14.50;99.90
13673;DHT22;6909;52.202;9.876;2023-10-09T08:23:39;14.50;99.90
13673;DHT22;6909;52.202;9.876;2023-10-09T08:26:15;14.50;99.90
13673;DHT22;6909;52.202;9.876;2023-10-09T08:28:54;14.60;99.90
13673;DHT22;6909;52.202;9.876;2023-10-09T08:31:42;14.60;99.90
13673;DHT22;6909;52.202;9.876;2023-10-09T08:34:12;14.70;99.90
13673;DHT22;6909;52.202;9.876;2023-10-09T08:36:49;14.70;99.90
13673;DHT22;6909;52.202;9.876;2023-10-09T08:39:18;14.80;99.90
13673;DHT22;6909;52.202;9.876;2023-10-09T08:41:51;14.80;99.90
13673;DHT22;6909;52.202;9.876;2023-10-09T08:44:20;14.80;99.90
13673;DHT22;6909;52.202;9.876;2023-10-09T08:46:50;14.90;99.90
13673;DHT22;6909;52.202;9.876;2023-10-09T08:49:17;15.00;99.90
13673;DHT22;6909;52.202;9.876;2023-10-09T08:51:45;15.00;99.90
13673;DHT22;6909;52.202;9.876;2023-10-09T08:54:12;15.00;99.90
13673;DHT22;6909;52.202;9.876;2023-10-09T08:56:41;15.00;99.90
13673;DHT22;6909;52.202;9.876;2023-10-09T08:59:15;15.10;99.90
13673;DHT22;6909;52.202;9.876;2023-10-09T09:01:43;15.10;99.90
13673;DHT22;6909;52.202;9.876;2023-10-09T09:04:34;15.10;99.90
13673;DHT22;6909;52.202;9.876;2023-10-09T09:07:02;15.20;99.90
13673;DHT22;6909;52.202;9.876;2023-10-09T09:09:29;15.20;99.90
13673;DHT22;6909;52.202;9.876;2023-10-09T09:11:57;15.30;99.90
13673;DHT22;6909;52.202;9.876;2023-10-09T09:14:35;15.40;99.90
13673;DHT22;6909;52.202;9.876;2023-10-09T09:17:03;15.50;99.90
13673;DHT22;6909;52.202;9.876;2023-10-09T09:19:32;15.50;99.90
13673;DHT22;6909;52.202;9.876;2023-10-09T09:22:03;15.40;99.90
13673;DHT22;6909;52.202;9.876;2023-10-09T09:24:38;15.40;99.90
13673;DHT22;6909;52.202;9.876;2023-10-09T09:27:11;15.40;99.90
13673;DHT22;6909;52.202;9.876;2023-10-09T09:29:44;15.50;99.90
13673;DHT22;6909;52.202;9.876;2023-10-09T09:32:26;15.50;99.90
13673;DHT22;6909;52.202;9.876;2023-10-09T09:34:56;15.60;99.90
13673;DHT22;6909;52.202;9.876;2023-10-09T09:37:27;15.60;99.90
13673;DHT22;6909;52.202;9.876;2023-10-09T09:39:57;15.70;99.90
13673;DHT22;6909;52.202;9.876;2023-10-09T09:42:27;15.80;99.90
13673;DHT22;6909;52.202;9.876;2023-10-09T09:44:58;15.90;99.90
13673;DHT22;6909;52.202;9.876;2023-10-09T09:47:25;16.10;99.90
13673;DHT22;6909;52.202;9.876;2023-10-09T09:49:53;16.10;99.90
13673;DHT22;6909;52.202;9.876;2023-10-09T09:52:28;16.10;99.90
13673;DHT22;6909;52.202;9.876;2023-10-09T09:54:55;16.10;99.90
13673;DHT22;6909;52.202;9.876;2023-10-09T09:57:23;15.90;99.90
13673;DHT22;6909;52.202;9.876;2023-10-09T09:59:52;15.80;99.90
13673;DHT22;6909;52.202;9.876;2023-10-09T10:02:24;15.80;99.90
13673;DHT22;6909;52.202;9.876;2023-10-09T10:04:57;15.70;99.90
13673;DHT22;6909;52.202;9.876;2023-10-09T10:07:27;15.70;99.90
13673;DHT22;6909;52.202;9.876;2023-10-09T10:09:57;15.70;99.90
13673;DHT22;6909;52.202;9.876;2023-10-09T10:12:49;15.60;99.90
13673;DHT22;6909;52.202;9.876;2023-10-09T10:15:57;15.60;99.90
13673;DHT22;6909;52.202;9.876;2023-10-09T10:18:30;15.70;99.90
13673;DHT22;6909;52.202;9.876;2023-10-09T10:21:11;15.70;99.90
13673;DHT22;6909;52.202;9.876;2023-10-09T10:23:43;15.80;99.90
13673;DHT22;6909;52.202;9.876;2023-10-09T10:26:22;15.70;99.90
13673;DHT22;6909;52.202;9.876;2023-10-09T10:29:13;15.70;99.90
13673;DHT22;6909;52.202;9.876;2023-10-09T10:31:55;15.70;99.90
13673;DHT22;6909;52.202;9.876;2023-10-09T10:34:23;15.70;99.90
13673;DHT22;6909;52.202;9.876;2023-10-09T10:36:50;15.60;99.90
13673;DHT22;6909;52.202;9.876;2023-10-09T10:39:25;15.50;99.90
13673;DHT22;6909;52.202;9.876;2023-10-09T10:42:06;15.60;99.90
13673;DHT22;6909;52.202;9.876;2023-10-09T10:44:35;15.60;99.90
13673;DHT22;6909;52.202;9.876;2023-10-09T10:47:08;15.60;99.90
13673;DHT22;6909;52.202;9.876;2023-10-09T10:49:48;15.60;99.90
13673;DHT22;6909;52.202;9.876;2023-10-09T10:52:23;15.60;99.90
13673;DHT22;6909;52.202;9.876;2023-10-09T10:55:09;15.60;99.90
13673;DHT22;6909;52.202;9.876;2023-10-09T10:58:15;15.50;99.90
13673;DHT22;6909;52.202;9.876;2023-10-09T11:00:52;15.50;99.90
13673;DHT22;6909;52.202;9.876;2023-10-09T11:03:36;15.40;99.90
13673;DHT22;6909;52.202;9.876;2023-10-09T11:06:24;15.40;99.90
13673;DHT22;6909;52.202;9.876;2023-10-09T11:09:01;15.40;99.90
13673;DHT22;6909;52.202;9.876;2023-10-09T11:11:36;15.40;99.90
13673;DHT22;6909;52.202;9.876;2023-10-09T11:14:12;15.40;99.90
13673;DHT22;6909;52.202;9.876;2023-10-09T11:16:40;15.40;99.90
13673;DHT22;6909;52.202;9.876;2023-10-09T11:19:14;15.40;99.90
13673;DHT22;6909;52.202;9.876;2023-10-09T11:21:54;15.40;99.90
13673;DHT22;6909;52.202;9.876;2023-10-09T11:24:46;15.50;99.90
13673;DHT22;6909;52.202;9.876;2023-10-09T11:27:27;15.40;99.90
13673;DHT22;6909;52.202;9.876;2023-10-09T11:29:58;15.40;99.90
13673;DHT22;6909;52.202;9.876;2023-10-09T11:32:36;15.50;99.90
13673;DHT22;6909;52.202;9.876;2023-10-09T11:35:11;15.60;99.90
13673;DHT22;6909;52.202;9.876;2023-10-09T11:37:40;15.60;99.90
13673;DHT22;6909;52.202;9.876;2023-10-09T11:40:27;15.60;99.90
13673;DHT22;6909;52.202;9.876;2023-10-09T11:43:01;15.60;99.90
13673;DHT22;6909;52.202;9.876;2023-10-09T11:45:28;15.60;99.90
13673;DHT22;6909;52.202;9.876;2023-10-09T11:47:57;15.70;99.90
13673;DHT22;6909;52.202;9.876;2023-10-09T11:50:42;15.80;99.90
13673;DHT22;6909;52.202;9.876;2023-10-09T11:53:14;15.70;99.90
13673;DHT22;6909;52.202;9.876;2023-10-09T11:55:58;15.80;99.90
13673;DHT22;6909;52.202;9.876;2023-10-09T11:58:27;15.80;99.90
13673;DHT22;6909;52.202;9.876;2023-10-09T12:00:53;15.90;99.90
13673;DHT22;6909;52.202;9.876;2023-10-09T12:03:25;15.90;99.90
13673;DHT22;6909;52.202;9.876;2023-10-09T12:05:55;16.00;99.90
13673;DHT22;6909;52.202;9.876;2023-10-09T12:08:23;15.90;99.90
13673;DHT22;6909;52.202;9.876;2023-10-09T12:10:53;16.00;99.90
13673;DHT22;6909;52.202;9.876;2023-10-09T12:13:21;15.90;99.90
13673;DHT22;6909;52.202;9.876;2023-10-09T12:15:50;15.90;99.90
13673;DHT22;6909;52.202;9.876;2023-10-09T12:18:20;15.90;99.90
13673;DHT22;6909;52.202;9.876;2023-10-09T12:20:47;15.90;99.90
13673;DHT22;6909;52.202;9.876;2023-10-09T12:23:17;15.90;99.90
13673;DHT22;6909;52.202;9.876;2023-10-09T12:25:44;15.90;99.90
13673;DHT22;6909;52.202;9.876;2023-10-09T12:28:11;15.80;99.90
13673;DHT22;6909;52.202;9.876;2023-10-09T12:30:39;15.80;99.90
13673;DHT22;6909;52.202;9.876;2023-10-09T12:33:08;15.80;99.90
13673;DHT22;6909;52.202;9.876;2023-10-09T12:35:39;15.80;99.90
13673;DHT22;6909;52.202;9.876;2023-10-09T12:38:07;15.80;99.90
13673;DHT22;6909;52.202;9.876;2023-10-09T12:40:35;15.80;99.90
13673;DHT22;6909;52.202;9.876;2023-10-09T12:43:03;15.80;99.90
13673;DHT22;6909;52.202;9.876;2023-10-09T12:45:33;15.80;99.90
13673;DHT22;6909;52.202;9.876;2023-10-09T12:48:01;15.80;99.90
13673;DHT22;6909;52.202;9.876;2023-10-09T12:50:35;15.80;99.90
13673;DHT22;6909;52.202;9.876;2023-10-09T12:53:07;15.80;99.90
13673;DHT22;6909;52.202;9.876;2023-10-09T12:55:37;15.80;99.90
13673;DHT22;6909;52.202;9.876;2023-10-09T12:58:06;15.80;99.90
13673;DHT22;6909;52.202;9.876;2023-10-09T13:00:34;15.80;99.90
13673;DHT22;6909;52.202;9.876;2023-10-09T13:03:04;15.80;99.90
13673;DHT22;6909;52.202;9.876;2023-10-09T13:05:43;15.70;99.90
13673;DHT22;6909;52.202;9.876;2023-10-09T13:08:18;15.70;99.90
13673;DHT22;6909;52.202;9.876;2023-10-09T13:10:47;15.80;99.90
13673;DHT22;6909;52.202;9.876;2023-10-09T13:13:19;15.80;99.90
13673;DHT22;6909;52.202;9.876;2023-10-09T13:15:46;15.80;99.90
13673;DHT22;6909;52.202;9.876;2023-10-09T13:18:13;15.90;99.90
13673;DHT22;6909;52.202;9.876;2023-10-09T13:20:40;15.90;99.90
13673;DHT22;6909;52.202;9.876;2023-10-09T13:23:08;15.90;99.90
13673;DHT22;6909;52.202;9.876;2023-10-09T13:25:40;15.90;99.90
13673;DHT22;6909;52.202;9.876;2023-10-09T13:28:06;16.00;99.90
13673;DHT22;6909;52.202;9.876;2023-10-09T13:30:37;16.00;99.90
13673;DHT22;6909;52.202;9.876;2023-10-09T13:33:14;16.10;99.90
13673;DHT22;6909;52.202;9.876;2023-10-09T13:35:42;16.10;99.90
13673;DHT22;6909;52.202;9.876;2023-10-09T13:38:17;16.20;99.90
13673;DHT22;6909;52.202;9.876;2023-10-09T13:40:44;16.20;99.90
13673;DHT22;6909;52.202;9.876;2023-10-09T13:43:10;16.30;99.90
13673;DHT22;6909;52.202;9.876;2023-10-09T13:45:42;16.30;99.90
13673;DHT22;6909;52.202;9.876;2023-10-09T13:48:15;16.30;99.90
13673;DHT22;6909;52.202;9.876;2023-10-09T13:50:43;16.30;99.90
13673;DHT22;6909;52.202;9.876;2023-10-09T13:53:09;16.30;99.90
13673;DHT22;6909;52.202;9.876;2023-10-09T13:55:39;16.30;99.90
13673;DHT22;6909;52.202;9.876;2023-10-09T13:58:08;16.40;99.90
13673;DHT22;6909;52.202;9.876;2023-10-09T14:00:39;16.50;99.90
13673;DHT22;6909;52.202;9.876;2023-10-09T14:03:08;16.50;99.90
13673;DHT22;6909;52.202;9.876;2023-10-09T14:05:39;16.60;99.90
13673;DHT22;6909;52.202;9.876;2023-10-09T14:08:19;16.50;99.90
13673;DHT22;6909;52.202;9.876;2023-10-09T14:10:48;16.50;99.90
13673;DHT22;6909;52.202;9.876;2023-10-09T14:13:15;16.50;99.90
13673;DHT22;6909;52.202;9.876;2023-10-09T14:15:51;16.50;99.90
13673;DHT22;6909;52.202;9.876;2023-10-09T14:18:20;16.50;99.90
13673;DHT22;6909;52.202;9.876;2023-10-09T14:20:47;16.60;99.90
13673;DHT22;6909;52.202;9.876;2023-10-09T14:23:15;16.60;99.90
13673;DHT22;6909;52.202;9.876;2023-10-09T14:25:47;16.60;99.90
13673;DHT22;6909;52.202;9.876;2023-10-09T14:28:15;16.70;99.90
13673;DHT22;6909;52.202;9.876;2023-10-09T14:30:44;16.70;99.90
13673;DHT22;6909;52.202;9.876;2023-10-09T14:33:16;16.70;99.90
13673;DHT22;6909;52.202;9.876;2023-10-09T14:35:48;16.70;99.90
13673;DHT22;6909;52.202;9.876;2023-10-09T14:38:17;16.70;99.90
13673;DHT22;6909;52.202;9.876;2023-10-09T14:40:48;16.80;99.90
13673;DHT22;6909;52.202;9.876;2023-10-09T14:43:15;16.70;99.90
13673;DHT22;6909;52.202;9.876;2023-10-09T14:45:53;16.70;99.90
13673;DHT22;6909;52.202;9.876;2023-10-09T14:48:21;16.80;99.90
13673;DHT22;6909;52.202;9.876;2023-10-09T14:50:52;16.70;99.90
13673;DHT22;6909;52.202;9.876;2023-10-09T14:53:19;16.70;99.90
13673;DHT22;6909;52.202;9.876;2023-10-09T14:55:54;16.70;99.90
13673;DHT22;6909;52.202;9.876;2023-10-09T14:58:21;16.70;99.90
13673;DHT22;6909;52.202;9.876;2023-10-09T15:00:50;16.60;99.90
13673;DHT22;6909;52.202;9.876;2023-10-09T15:03:18;16.60;99.90
13673;DHT22;6909;52.202;9.876;2023-10-09T15:05:45;16.60;99.90
13673;DHT22;6909;52.202;9.876;2023-10-09T15:08:13;16.60;99.90
13673;DHT22;6909;52.202;9.876;2023-10-09T15:10:45;16.70;99.90
13673;DHT22;6909;52.202;9.876;2023-10-09T15:13:14;16.60;99.90
13673;DHT22;6909;52.202;9.876;2023-10-09T15:15:42;16.60;99.90
13673;DHT22;6909;52.202;9.876;2023-10-09T15:18:16;16.50;99.90
13673;DHT22;6909;52.202;9.876;2023-10-09T15:20:44;16.50;99.90
13673;DHT22;6909;52.202;9.876;2023-10-09T15:23:11;16.50;99.90
13673;DHT22;6909;52.202;9.876;2023-10-09T15:25:38;16.60;99.90
13673;DHT22;6909;52.202;9.876;2023-10-09T15:28:08;16.60;99.90
13673;DHT22;6909;52.202;9.876;2023-10-09T15:30:37;16.50;99.90
13673;DHT22;6909;52.202;9.876;2023-10-09T15:33:04;16.50;99.90
13673;DHT22;6909;52.202;9.876;2023-10-09T15:35:33;16.50;99.90
13673;DHT22;6909;52.202;9.876;2023-10-09T15:38:01;16.50;99.90
13673;DHT22;6909;52.202;9.876;2023-10-09T15:40:28;16.50;99.90
13673;DHT22;6909;52.202;9.876;2023-10-09T15:42:59;16.50;99.90
13673;DHT22;6909;52.202;9.876;2023-10-09T15:45:26;16.50;99.90
13673;DHT22;6909;52.202;9.876;2023-10-09T15:47:56;16.50;99.90
13673;DHT22;6909;52.202;9.876;2023-10-09T15:50:23;16.50;99.90
13673;DHT22;6909;52.202;9.876;2023-10-09T15:52:51;16.50;99.90
13673;DHT22;6909;52.202;9.876;2023-10-09T15:55:19;16.50;99.90
13673;DHT22;6909;52.202;9.876;2023-10-09T15:57:50;16.40;99.90
13673;DHT22;6909;52.202;9.876;2023-10-09T16:00:20;16.50;99.90
13673;DHT22;6909;52.202;9.876;2023-10-09T16:02:49;16.40;99.90
13673;DHT22;6909;52.202;9.876;2023-10-09T16:05:20;16.40;99.90
13673;DHT22;6909;52.202;9.876;2023-10-09T16:07:51;16.40;99.90
13673;DHT22;6909;52.202;9.876;2023-10-09T16:10:20;16.40;99.90
13673;DHT22;6909;52.202;9.876;2023-10-09T16:12:47;16.40;99.90
13673;DHT22;6909;52.202;9.876;2023-10-09T16:15:17;16.40;99.90
13673;DHT22;6909;52.202;9.876;2023-10-09T16:17:46;16.40;99.90
13673;DHT22;6909;52.202;9.876;2023-10-09T16:20:15;16.40;99.90
13673;DHT22;6909;52.202;9.876;2023-10-09T16:22:48;16.40;99.90
13673;DHT22;6909;52.202;9.876;2023-10-09T16:25:15;16.40;99.90
13673;DHT22;6909;52.202;9.876;2023-10-09T16:27:46;16.40;99.90